Nelspruit, South Africa

12:28 AM SAST on February 09, 2016 (GMT +0200)
Kruger Mpumalanga Interna | | Change Station
CLOSE
Current Station
Airport
Location: Kruger Mpumalanga Interna,
Elevation: 2828 ft
Nearby Weather Stations

Elev 2828 ft 25.38 °S, 31.11 °E | Updated 28 minutes ago

Partly Cloudy
Partly Cloudy
66 °F
Feels Like 66 °F
N
6
Wind Variable Wind from ENE
Gusts mph

Today
High -- | Low -- °F
--% Chance of Precip.
Yesterday
High -- | Low -- °F
Precip. -- in
Pressure 30.15 in
Visibility -9999.0 miles
Clouds
Dew Point 59 °F
Humidity 78%
Rainfall 0.00 in
Snow Depth Not available.
5:37 AM 6:43 PM
New Moon, 0% visible
METAR FAKN 082200Z AUTO 06005KT //// // ////// 19/15 Q1021
Pressure 30.15 in
Visibility -9999.0 miles
Clouds
Dew Point 59 °F
Humidity 78%
Rainfall 0.00 in
Snow Depth Not available.
5:37 AM 6:43 PM
New Moon, 0% visible
METAR FAKN 082200Z AUTO 06005KT //// // ////// 19/15 Q1021

10-Day Weather Forecast

No radar image for this location.
×

Almanac

Astronomy

Feb. 09, 2016 Rise Set
Actual Time
Civil Twilight
Nautical Twilight
Astronomical Twilight
Moon
Length of Visible Light
Length of Day
Tomorrow will be .
, % of the Moon is Illuminated

Today's Extremes

Country Highs Country Lows

Community

WunderPhotos

Upload Photos

1,891,518 photos uploaded!

WunderBlog® & News

Nearby

Air Quality

  Air Quality AQ Index Pollutant
Not available.

Snow Depth

Station Depth Elevation

Earthquake Activity

City Distance Mag. Time & Date
Minimum magnitude displayed is 2.5.

Coastal Water Temperatures

Place Temperature

Stations

Nearby Weather Stations

Station Location Temp. Windchill Dew Point Humidity Wind Precip. Elev Updated Type